首页
METAR-TAF:

METAR-TAF

机场 :

Lleida-Alguaire

莱里达, 西班牙

纬度: 41-43-40N, 经度: 000-32-09E, 海拔: 350米

当前天气观测

该预报发布于37分钟前的21:30 UTC
风速9节,风向西转西南
温度 8°C
湿度 81%
气压 1007 hPa
能见度10公里或以上
1500米以下无云,无积雨云

METAR: LEDA 122130Z AUTO 24009KT CAVOK 08/05 Q1007

时间: 23:07 (22:07 UTC)


TAF: 丢失

超过4000个机场的气象观测和天气预报(METAR&TAF报告)。

可查询的气象台以黄色和红色小点在地图上表示。

将鼠标移到小点上方,可查看气象台名称。

然后点击查看天气观测和预报。

如需切换地图:点击带黑十字的绿色按钮放大地图;点击带横线的绿色按钮缩小地图;或者点击绿色箭头查看邻近地区的地图。


METAR-TAF: